Time,TemperatureF,DewpointF,PressureIn,WindDirection,WindDirectionDegrees,WindSpeedMPH,WindSpeedGustMPH,Humidity,HourlyPrecipIn,Conditions,Clouds,dailyrainin,SolarRadiationWatts/m^2,SoftwareType,DateUTC
2013-07-03 00:03:00,67.0,52.0,-100.00,ENE,71,3.0,8.0,59,0.00,,,0.00,0.000000,,2013-07-03 07:03:00,
2013-07-03 00:47:00,72.0,41.0,-100.00,ESE,111,5.0,7.0,33,0.00,,,0.00,0.000000,,2013-07-03 07:47:00,
2013-07-03 00:59:00,72.0,41.0,-100.00,ESE,111,5.0,7.0,33,0.00,,,0.00,0.000000,,2013-07-03 07:59:00,
2013-07-03 01:03:00,72.0,41.0,-100.00,ESE,111,5.0,7.0,33,0.00,,,0.00,0.000000,,2013-07-03 08:03:00,
2013-07-03 02:47:00,72.0,44.0,-100.00,East,95,5.0,8.0,37,-99.99,,,0.00,0.000000,,2013-07-03 09:47:00,
2013-07-03 02:57:00,72.0,44.0,-100.00,East,95,5.0,8.0,37,-99.99,,,0.00,0.000000,,2013-07-03 09:57:00,
2013-07-03 03:03:00,72.0,44.0,-100.00,East,95,5.0,8.0,37,-99.99,,,0.00,0.000000,,2013-07-03 10:03:00,
2013-07-03 03:11:00,61.0,52.0,-100.00,NNW,346,3.0,9.0,72,0.00,,,0.00,0.000000,,2013-07-03 10:11:00,
2013-07-03 03:55:00,61.0,52.0,-100.00,NNW,346,3.0,9.0,72,0.00,,,0.00,0.000000,,2013-07-03 10:55:00,
2013-07-03 04:03:00,61.0,52.0,-100.00,NNW,346,3.0,9.0,72,0.00,,,0.00,0.000000,,2013-07-03 11:03:00,
2013-07-03 04:44:00,64.0,42.0,-100.00,SSE,152,2.0,5.0,44,0.00,,,0.00,0.000000,,2013-07-03 11:44:00,
2013-07-03 04:55:00,64.0,42.0,-100.00,SSE,152,2.0,5.0,44,0.00,,,0.00,0.000000,,2013-07-03 11:55:00,
2013-07-03 05:03:00,64.0,42.0,-100.00,SSE,152,2.0,5.0,44,0.00,,,0.00,0.000000,,2013-07-03 12:03:00,
2013-07-03 05:58:00,68.0,37.0,-100.00,East,96,2.0,4.0,32,0.00,,,0.00,0.000000,,2013-07-03 12:58:00,
2013-07-03 06:11:00,69.0,39.0,-100.00,SW,215,1.0,5.0,34,-99.99,,,0.00,3.000000,,2013-07-03 13:11:00,
2013-07-03 06:55:00,69.0,39.0,-100.00,SW,215,1.0,5.0,34,-99.99,,,0.00,3.000000,,2013-07-03 13:55:00,
2013-07-03 07:11:00,71.0,38.0,-100.00,East,79,1.0,5.0,30,-99.99,,,0.00,46.000000,,2013-07-03 14:11:00,
2013-07-03 07:47:00,71.0,38.0,-100.00,East,79,1.0,5.0,30,-99.99,,,0.00,46.000000,,2013-07-03 14:47:00,
2013-07-03 07:54:00,71.0,38.0,-100.00,East,79,1.0,5.0,30,-99.99,,,0.00,46.000000,,2013-07-03 14:54:00,
2013-07-03 08:02:00,71.0,38.0,-100.00,East,79,1.0,5.0,30,-99.99,,,0.00,46.000000,,2013-07-03 15:02:00,
2013-07-03 08:11:00,82.0,42.0,-100.00,WNW,292,1.0,8.0,24,0.00,,,0.00,254.000000,,2013-07-03 15:11:00,
2013-07-03 09:11:00,88.0,42.0,-100.00,SE,133,9.0,16.0,20,0.00,,,0.00,400.000000,,2013-07-03 16:11:00,
2013-07-03 12:11:00,94.0,49.0,-100.00,NW,308,10.0,14.0,22,-99.99,,,0.00,781.000000,,2013-07-03 19:11:00,
2013-07-03 12:56:00,94.0,49.0,-100.00,NW,308,10.0,14.0,22,-99.99,,,0.00,781.000000,,2013-07-03 19:56:00,
2013-07-03 13:02:00,94.0,49.0,-100.00,NW,308,10.0,14.0,22,-99.99,,,0.00,781.000000,,2013-07-03 20:02:00,
2013-07-03 13:46:00,93.0,54.0,-100.00,NNW,327,10.0,14.0,27,-99.99,,,0.00,936.000000,,2013-07-03 20:46:00,
2013-07-03 13:55:00,93.0,54.0,-100.00,NNW,327,10.0,14.0,27,-99.99,,,0.00,936.000000,,2013-07-03 20:55:00,
2013-07-03 14:11:00,93.0,54.0,-100.00,NW,305,9.0,15.0,27,0.00,,,0.00,913.000000,,2013-07-03 21:11:00,
2013-07-03 14:45:00,93.0,54.0,-100.00,NW,305,9.0,15.0,27,0.00,,,0.00,913.000000,,2013-07-03 21:45:00,
2013-07-03 14:54:00,93.0,54.0,-100.00,NW,305,9.0,15.0,27,0.00,,,0.00,913.000000,,2013-07-03 21:54:00,
2013-07-03 15:01:00,93.0,54.0,-100.00,NW,305,9.0,15.0,27,0.00,,,0.00,913.000000,,2013-07-03 22:01:00,
2013-07-03 15:11:00,94.0,52.0,-100.00,WNW,301,9.0,15.0,24,0.00,,,0.00,865.000000,,2013-07-03 22:11:00,
2013-07-03 15:46:00,94.0,52.0,-100.00,WNW,301,9.0,15.0,24,0.00,,,0.00,865.000000,,2013-07-03 22:46:00,
2013-07-03 15:55:00,94.0,52.0,-100.00,WNW,301,9.0,15.0,24,0.00,,,0.00,865.000000,,2013-07-03 22:55:00,
2013-07-03 16:02:00,94.0,52.0,-100.00,WNW,301,9.0,15.0,24,0.00,,,0.00,865.000000,,2013-07-03 23:02:00,
2013-07-03 16:11:00,92.0,50.0,-100.00,WNW,302,11.0,16.0,24,0.00,,,0.00,764.000000,,2013-07-03 23:11:00,
2013-07-03 16:45:00,92.0,50.0,-100.00,WNW,302,11.0,16.0,24,0.00,,,0.00,764.000000,,2013-07-03 23:45:00,
2013-07-03 16:56:00,92.0,50.0,-100.00,WNW,302,11.0,16.0,24,0.00,,,0.00,764.000000,,2013-07-03 23:56:00,
2013-07-03 17:02:00,92.0,50.0,-100.00,WNW,302,11.0,16.0,24,0.00,,,0.00,764.000000,,2013-07-04 00:02:00,
2013-07-03 17:50:00,92.0,48.0,-100.00,NW,313,10.0,17.0,22,0.00,,,0.00,625.000000,,2013-07-04 00:50:00,
2013-07-03 17:56:00,92.0,48.0,-100.00,NW,313,10.0,17.0,22,0.00,,,0.00,625.000000,,2013-07-04 00:56:00,
2013-07-03 18:03:00,92.0,48.0,-100.00,NW,313,10.0,17.0,22,0.00,,,0.00,625.000000,,2013-07-04 01:03:00,
2013-07-03 18:40:00,91.0,48.0,-100.00,WNW,296,9.0,14.0,23,0.00,,,0.00,452.000000,,2013-07-04 01:40:00,
2013-07-03 18:54:00,91.0,48.0,-100.00,WNW,296,9.0,14.0,23,0.00,,,0.00,452.000000,,2013-07-04 01:54:00,
2013-07-03 19:11:00,87.0,51.0,-100.00,NW,311,9.0,13.0,29,0.00,,,0.00,262.000000,,2013-07-04 02:11:00,
2013-07-03 19:41:00,87.0,51.0,-100.00,NW,311,9.0,13.0,29,0.00,,,0.00,262.000000,,2013-07-04 02:41:00,
2013-07-03 19:49:00,87.0,51.0,-100.00,NW,311,9.0,13.0,29,0.00,,,0.00,262.000000,,2013-07-04 02:49:00,
2013-07-03 19:56:00,87.0,51.0,-100.00,NW,311,9.0,13.0,29,0.00,,,0.00,262.000000,,2013-07-04 02:56:00,
2013-07-03 20:11:00,81.0,50.0,-100.00,WNW,294,4.0,9.0,34,-99.99,,,0.00,64.000000,,2013-07-04 03:11:00,
2013-07-03 20:46:00,81.0,50.0,-100.00,WNW,294,4.0,9.0,34,-99.99,,,0.00,64.000000,,2013-07-04 03:46:00,
2013-07-03 21:01:00,81.0,50.0,-100.00,WNW,294,4.0,9.0,34,-99.99,,,0.00,64.000000,,2013-07-04 04:01:00,
2013-07-03 21:43:00,77.0,46.0,-100.00,ESE,107,2.0,3.0,34,0.00,,,0.00,3.000000,,2013-07-04 04:43:00,
2013-07-03 21:52:00,77.0,46.0,-100.00,ESE,107,2.0,3.0,34,0.00,,,0.00,3.000000,,2013-07-04 04:52:00,
2013-07-03 22:01:00,77.0,46.0,-100.00,ESE,107,2.0,3.0,34,0.00,,,0.00,3.000000,,2013-07-04 05:01:00,
2013-07-03 22:11:00,77.0,42.0,-100.00,WNW,300,2.0,5.0,29,-99.99,,,0.00,0.000000,,2013-07-04 05:11:00,
2013-07-03 22:43:00,77.0,42.0,-100.00,WNW,300,2.0,5.0,29,-99.99,,,0.00,0.000000,,2013-07-04 05:43:00,
2013-07-03 22:52:00,77.0,42.0,-100.00,WNW,300,2.0,5.0,29,-99.99,,,0.00,0.000000,,2013-07-04 05:52:00,
2013-07-03 23:01:00,77.0,42.0,-100.00,WNW,300,2.0,5.0,29,-99.99,,,0.00,0.000000,,2013-07-04 06:01:00,